Solrod, Denmark
Current Conditions -  °F | °C
As of 1:50 PM on Friday 19 Dec 2014 (Local Time) from EKRK Reporting Station
Scattered Clouds Scattered Clouds  
Wind Chill: 39°   Ceiling: Unl
Heat Index: 46°   Visibility: 6mi
Dew Point: 39°   Wind: 17mph
Humidity: 76%   Direction: 260°W
Pressure: 29.44"   Gusts: 31mph
Location:  55.54°N, 12.18°E
Report Text: EKRK 191250Z AUTO 26015G27KT 230V290 9999NDV FEW023///SCT030/// 08/04 Q0997
Loading
Personal Weather Stations






























Interactive Weather Map New forecast layout! Learn more

10-Day Weather Forecast

Advertisements
Track Severe Weather on mobile